sensor_id;sensor_type;location;lat;lon;timestamp;temperature;humidity
9006;DHT22;62284;50.702;7.140;2022-12-10T00:02:14;1.40;99.90
9006;DHT22;62284;50.702;7.140;2022-12-10T00:04:41;1.30;99.90
9006;DHT22;62284;50.702;7.140;2022-12-10T00:07:08;1.30;99.90
9006;DHT22;62284;50.702;7.140;2022-12-10T00:09:35;1.30;99.90
9006;DHT22;62284;50.702;7.140;2022-12-10T00:12:03;1.20;99.90
9006;DHT22;62284;50.702;7.140;2022-12-10T00:14:30;1.20;99.90
9006;DHT22;62284;50.702;7.140;2022-12-10T00:16:57;1.20;99.90
9006;DHT22;62284;50.702;7.140;2022-12-10T00:19:24;1.20;99.90
9006;DHT22;62284;50.702;7.140;2022-12-10T00:21:51;1.30;99.90
9006;DHT22;62284;50.702;7.140;2022-12-10T00:24:17;1.30;99.90
9006;DHT22;62284;50.702;7.140;2022-12-10T00:26:44;1.40;99.90
9006;DHT22;62284;50.702;7.140;2022-12-10T00:29:13;1.40;99.90
9006;DHT22;62284;50.702;7.140;2022-12-10T00:31:40;1.40;99.90
9006;DHT22;62284;50.702;7.140;2022-12-10T00:34:08;1.40;99.90
9006;DHT22;62284;50.702;7.140;2022-12-10T00:36:37;1.50;99.90
9006;DHT22;62284;50.702;7.140;2022-12-10T00:39:05;1.50;99.90
9006;DHT22;62284;50.702;7.140;2022-12-10T00:41:31;1.50;99.90
9006;DHT22;62284;50.702;7.140;2022-12-10T00:43:58;1.50;99.90
9006;DHT22;62284;50.702;7.140;2022-12-10T00:46:27;1.60;99.90
9006;DHT22;62284;50.702;7.140;2022-12-10T00:48:54;1.60;99.90
9006;DHT22;62284;50.702;7.140;2022-12-10T00:51:22;1.70;99.90
9006;DHT22;62284;50.702;7.140;2022-12-10T00:53:51;1.70;99.90
9006;DHT22;62284;50.702;7.140;2022-12-10T00:56:20;1.70;99.90
9006;DHT22;62284;50.702;7.140;2022-12-10T00:58:48;1.70;99.90
9006;DHT22;62284;50.702;7.140;2022-12-10T01:01:18;1.80;99.90
9006;DHT22;62284;50.702;7.140;2022-12-10T01:03:48;1.70;99.90
9006;DHT22;62284;50.702;7.140;2022-12-10T01:06:16;1.70;99.90
9006;DHT22;62284;50.702;7.140;2022-12-10T01:08:44;1.70;99.90
9006;DHT22;62284;50.702;7.140;2022-12-10T01:11:13;1.70;99.90
9006;DHT22;62284;50.702;7.140;2022-12-10T01:13:41;1.70;99.90
9006;DHT22;62284;50.702;7.140;2022-12-10T01:16:10;1.70;99.90
9006;DHT22;62284;50.702;7.140;2022-12-10T01:18:37;1.80;99.90
9006;DHT22;62284;50.702;7.140;2022-12-10T01:21:08;1.80;99.90
9006;DHT22;62284;50.702;7.140;2022-12-10T01:23:38;1.90;99.90
9006;DHT22;62284;50.702;7.140;2022-12-10T01:26:07;1.90;99.90
9006;DHT22;62284;50.702;7.140;2022-12-10T01:28:36;1.90;99.90
9006;DHT22;62284;50.702;7.140;2022-12-10T01:31:04;1.90;99.90
9006;DHT22;62284;50.702;7.140;2022-12-10T01:33:33;2.00;99.90
9006;DHT22;62284;50.702;7.140;2022-12-10T01:36:02;2.00;99.90
9006;DHT22;62284;50.702;7.140;2022-12-10T01:38:30;2.00;99.90
9006;DHT22;62284;50.702;7.140;2022-12-10T01:40:57;2.00;99.90
9006;DHT22;62284;50.702;7.140;2022-12-10T01:43:24;2.00;99.90
9006;DHT22;62284;50.702;7.140;2022-12-10T01:45:51;2.00;99.90
9006;DHT22;62284;50.702;7.140;2022-12-10T01:48:18;2.00;99.90
9006;DHT22;62284;50.702;7.140;2022-12-10T01:50:45;1.90;99.90
9006;DHT22;62284;50.702;7.140;2022-12-10T01:53:13;1.90;99.90
9006;DHT22;62284;50.702;7.140;2022-12-10T01:55:46;2.00;99.90
9006;DHT22;62284;50.702;7.140;2022-12-10T01:58:15;1.90;99.90
9006;DHT22;62284;50.702;7.140;2022-12-10T02:00:49;1.80;99.90
9006;DHT22;62284;50.702;7.140;2022-12-10T02:03:24;1.90;99.90
9006;DHT22;62284;50.702;7.140;2022-12-10T02:06:00;1.80;99.90
9006;DHT22;62284;50.702;7.140;2022-12-10T02:08:35;1.80;99.90
9006;DHT22;62284;50.702;7.140;2022-12-10T02:11:11;1.80;99.90
9006;DHT22;62284;50.702;7.140;2022-12-10T02:13:48;1.90;99.90
9006;DHT22;62284;50.702;7.140;2022-12-10T02:16:24;2.00;99.90
9006;DHT22;62284;50.702;7.140;2022-12-10T02:18:56;2.00;99.90
9006;DHT22;62284;50.702;7.140;2022-12-10T02:21:33;1.90;99.90
9006;DHT22;62284;50.702;7.140;2022-12-10T02:24:03;2.00;99.90
9006;DHT22;62284;50.702;7.140;2022-12-10T02:26:41;2.00;99.90
9006;DHT22;62284;50.702;7.140;2022-12-10T02:29:15;2.00;99.90
9006;DHT22;62284;50.702;7.140;2022-12-10T02:31:45;2.00;99.90
9006;DHT22;62284;50.702;7.140;2022-12-10T02:34:14;2.10;99.90
9006;DHT22;62284;50.702;7.140;2022-12-10T02:36:43;2.10;99.90
9006;DHT22;62284;50.702;7.140;2022-12-10T02:39:14;2.10;99.90
9006;DHT22;62284;50.702;7.140;2022-12-10T02:41:46;2.10;99.90
9006;DHT22;62284;50.702;7.140;2022-12-10T02:44:17;2.00;99.90
9006;DHT22;62284;50.702;7.140;2022-12-10T02:46:47;2.00;99.90
9006;DHT22;62284;50.702;7.140;2022-12-10T02:49:16;2.00;99.90
9006;DHT22;62284;50.702;7.140;2022-12-10T02:51:43;2.00;99.90
9006;DHT22;62284;50.702;7.140;2022-12-10T02:54:34;2.00;99.90
9006;DHT22;62284;50.702;7.140;2022-12-10T02:57:06;1.90;99.90
9006;DHT22;62284;50.702;7.140;2022-12-10T02:59:46;1.70;99.90
9006;DHT22;62284;50.702;7.140;2022-12-10T03:02:19;1.70;99.90
9006;DHT22;62284;50.702;7.140;2022-12-10T03:04:49;1.70;99.90
9006;DHT22;62284;50.702;7.140;2022-12-10T03:07:25;1.70;99.90
9006;DHT22;62284;50.702;7.140;2022-12-10T03:10:00;1.80;99.90
9006;DHT22;62284;50.702;7.140;2022-12-10T03:12:31;1.80;99.90
9006;DHT22;62284;50.702;7.140;2022-12-10T03:15:03;1.80;99.90
9006;DHT22;62284;50.702;7.140;2022-12-10T03:17:31;1.80;99.90
9006;DHT22;62284;50.702;7.140;2022-12-10T03:20:00;1.80;99.90
9006;DHT22;62284;50.702;7.140;2022-12-10T03:22:28;1.80;99.90
9006;DHT22;62284;50.702;7.140;2022-12-10T03:24:56;1.80;99.90
9006;DHT22;62284;50.702;7.140;2022-12-10T03:27:25;1.70;99.90
9006;DHT22;62284;50.702;7.140;2022-12-10T03:29:57;1.70;99.90
9006;DHT22;62284;50.702;7.140;2022-12-10T03:32:28;1.70;99.90
9006;DHT22;62284;50.702;7.140;2022-12-10T03:34:58;1.80;99.90
9006;DHT22;62284;50.702;7.140;2022-12-10T03:37:27;1.90;99.90
9006;DHT22;62284;50.702;7.140;2022-12-10T03:39:55;1.80;99.90
9006;DHT22;62284;50.702;7.140;2022-12-10T03:42:22;1.90;99.90
9006;DHT22;62284;50.702;7.140;2022-12-10T03:44:50;1.80;99.90
9006;DHT22;62284;50.702;7.140;2022-12-10T03:47:18;1.80;99.90
9006;DHT22;62284;50.702;7.140;2022-12-10T03:49:47;1.90;99.90
9006;DHT22;62284;50.702;7.140;2022-12-10T03:52:14;1.80;99.90
9006;DHT22;62284;50.702;7.140;2022-12-10T03:54:41;1.80;99.90
9006;DHT22;62284;50.702;7.140;2022-12-10T03:57:08;1.80;99.90
9006;DHT22;62284;50.702;7.140;2022-12-10T03:59:35;1.70;99.90
9006;DHT22;62284;50.702;7.140;2022-12-10T04:02:02;1.80;99.90
9006;DHT22;62284;50.702;7.140;2022-12-10T04:04:29;1.80;99.90
9006;DHT22;62284;50.702;7.140;2022-12-10T04:06:57;1.90;99.90
9006;DHT22;62284;50.702;7.140;2022-12-10T04:09:24;1.90;99.90
9006;DHT22;62284;50.702;7.140;2022-12-10T04:11:55;1.80;99.90
9006;DHT22;62284;50.702;7.140;2022-12-10T04:14:23;1.90;99.90
9006;DHT22;62284;50.702;7.140;2022-12-10T04:17:08;1.90;99.90
9006;DHT22;62284;50.702;7.140;2022-12-10T04:19:35;1.90;99.90
9006;DHT22;62284;50.702;7.140;2022-12-10T04:22:04;1.80;99.90
9006;DHT22;62284;50.702;7.140;2022-12-10T04:24:49;1.90;99.90
9006;DHT22;62284;50.702;7.140;2022-12-10T04:27:48;1.90;99.90
9006;DHT22;62284;50.702;7.140;2022-12-10T04:30:15;1.90;99.90
9006;DHT22;62284;50.702;7.140;2022-12-10T04:32:41;1.80;99.90
9006;DHT22;62284;50.702;7.140;2022-12-10T04:35:09;1.90;99.90
9006;DHT22;62284;50.702;7.140;2022-12-10T04:37:37;1.80;99.90
9006;DHT22;62284;50.702;7.140;2022-12-10T04:40:05;1.80;99.90
9006;DHT22;62284;50.702;7.140;2022-12-10T04:42:32;1.70;99.90
9006;DHT22;62284;50.702;7.140;2022-12-10T04:44:59;1.80;99.90
9006;DHT22;62284;50.702;7.140;2022-12-10T04:47:26;1.70;99.90
9006;DHT22;62284;50.702;7.140;2022-12-10T04:49:53;1.80;99.90
9006;DHT22;62284;50.702;7.140;2022-12-10T04:52:19;1.70;99.90
9006;DHT22;62284;50.702;7.140;2022-12-10T04:54:48;1.60;99.90
9006;DHT22;62284;50.702;7.140;2022-12-10T04:57:14;1.70;99.90
9006;DHT22;62284;50.702;7.140;2022-12-10T04:59:41;1.70;99.90
9006;DHT22;62284;50.702;7.140;2022-12-10T05:02:09;1.70;99.90
9006;DHT22;62284;50.702;7.140;2022-12-10T05:04:36;1.70;99.90
9006;DHT22;62284;50.702;7.140;2022-12-10T05:07:03;1.80;99.90
9006;DHT22;62284;50.702;7.140;2022-12-10T05:09:29;1.80;99.90
9006;DHT22;62284;50.702;7.140;2022-12-10T05:11:58;1.80;99.90
9006;DHT22;62284;50.702;7.140;2022-12-10T05:14:24;1.70;99.90
9006;DHT22;62284;50.702;7.140;2022-12-10T05:16:52;1.70;99.90
9006;DHT22;62284;50.702;7.140;2022-12-10T05:19:19;1.60;99.90
9006;DHT22;62284;50.702;7.140;2022-12-10T05:21:47;1.50;99.90
9006;DHT22;62284;50.702;7.140;2022-12-10T05:24:32;1.60;99.90
9006;DHT22;62284;50.702;7.140;2022-12-10T05:27:00;1.60;99.90
9006;DHT22;62284;50.702;7.140;2022-12-10T05:29:27;1.60;99.90
9006;DHT22;62284;50.702;7.140;2022-12-10T05:31:54;1.60;99.90
9006;DHT22;62284;50.702;7.140;2022-12-10T05:34:22;1.60;99.90
9006;DHT22;62284;50.702;7.140;2022-12-10T05:36:48;1.60;99.90
9006;DHT22;62284;50.702;7.140;2022-12-10T05:39:15;1.70;99.90
9006;DHT22;62284;50.702;7.140;2022-12-10T05:41:42;1.60;99.90
9006;DHT22;62284;50.702;7.140;2022-12-10T05:44:12;1.50;99.90
9006;DHT22;62284;50.702;7.140;2022-12-10T05:46:39;1.60;99.90
9006;DHT22;62284;50.702;7.140;2022-12-10T05:49:07;1.60;99.90
9006;DHT22;62284;50.702;7.140;2022-12-10T05:51:36;1.60;99.90
9006;DHT22;62284;50.702;7.140;2022-12-10T05:54:04;1.60;99.90
9006;DHT22;62284;50.702;7.140;2022-12-10T05:56:31;1.60;99.90
9006;DHT22;62284;50.702;7.140;2022-12-10T05:59:00;1.60;99.90
9006;DHT22;62284;50.702;7.140;2022-12-10T06:01:29;1.70;99.90
9006;DHT22;62284;50.702;7.140;2022-12-10T06:03:57;1.70;99.90
9006;DHT22;62284;50.702;7.140;2022-12-10T06:06:26;1.70;99.90
9006;DHT22;62284;50.702;7.140;2022-12-10T06:08:54;1.70;99.90
9006;DHT22;62284;50.702;7.140;2022-12-10T06:11:21;1.70;99.90
9006;DHT22;62284;50.702;7.140;2022-12-10T06:13:48;1.70;99.90
9006;DHT22;62284;50.702;7.140;2022-12-10T06:16:15;1.70;99.90
9006;DHT22;62284;50.702;7.140;2022-12-10T06:18:44;1.60;99.90
9006;DHT22;62284;50.702;7.140;2022-12-10T06:21:13;1.60;99.90
9006;DHT22;62284;50.702;7.140;2022-12-10T06:23:40;1.60;99.90
9006;DHT22;62284;50.702;7.140;2022-12-10T06:26:09;1.50;99.90
9006;DHT22;62284;50.702;7.140;2022-12-10T06:28:36;1.50;99.90
9006;DHT22;62284;50.702;7.140;2022-12-10T06:31:03;1.50;99.90
9006;DHT22;62284;50.702;7.140;2022-12-10T06:33:30;1.60;99.90
9006;DHT22;62284;50.702;7.140;2022-12-10T06:35:59;1.50;99.90
9006;DHT22;62284;50.702;7.140;2022-12-10T06:38:26;1.50;99.90
9006;DHT22;62284;50.702;7.140;2022-12-10T06:40:53;1.50;99.90
9006;DHT22;62284;50.702;7.140;2022-12-10T06:43:19;1.50;99.90
9006;DHT22;62284;50.702;7.140;2022-12-10T06:45:46;1.50;99.90
9006;DHT22;62284;50.702;7.140;2022-12-10T06:48:13;1.50;99.90
9006;DHT22;62284;50.702;7.140;2022-12-10T06:50:40;1.50;99.90
9006;DHT22;62284;50.702;7.140;2022-12-10T06:53:08;1.50;99.90
9006;DHT22;62284;50.702;7.140;2022-12-10T06:55:36;1.50;99.90
9006;DHT22;62284;50.702;7.140;2022-12-10T06:58:03;1.50;99.90
9006;DHT22;62284;50.702;7.140;2022-12-10T07:00:30;1.40;99.90
9006;DHT22;62284;50.702;7.140;2022-12-10T07:02:57;1.60;99.90
9006;DHT22;62284;50.702;7.140;2022-12-10T07:05:24;1.60;99.90
9006;DHT22;62284;50.702;7.140;2022-12-10T07:07:51;1.60;99.90
9006;DHT22;62284;50.702;7.140;2022-12-10T07:10:19;1.60;99.90
9006;DHT22;62284;50.702;7.140;2022-12-10T07:12:46;1.60;99.90
9006;DHT22;62284;50.702;7.140;2022-12-10T07:15:13;1.50;99.90
9006;DHT22;62284;50.702;7.140;2022-12-10T07:17:40;1.60;99.90
9006;DHT22;62284;50.702;7.140;2022-12-10T07:20:08;1.60;99.90
9006;DHT22;62284;50.702;7.140;2022-12-10T07:22:35;1.60;99.90
9006;DHT22;62284;50.702;7.140;2022-12-10T07:25:02;1.60;99.90
9006;DHT22;62284;50.702;7.140;2022-12-10T07:27:30;1.60;99.90
9006;DHT22;62284;50.702;7.140;2022-12-10T07:29:57;1.60;99.90
9006;DHT22;62284;50.702;7.140;2022-12-10T07:32:26;1.60;99.90
9006;DHT22;62284;50.702;7.140;2022-12-10T07:34:52;1.70;99.90
9006;DHT22;62284;50.702;7.140;2022-12-10T07:37:19;1.70;99.90
9006;DHT22;62284;50.702;7.140;2022-12-10T07:39:46;1.70;99.90
9006;DHT22;62284;50.702;7.140;2022-12-10T07:42:13;1.70;99.90
9006;DHT22;62284;50.702;7.140;2022-12-10T07:44:41;1.70;99.90
9006;DHT22;62284;50.702;7.140;2022-12-10T07:47:08;1.60;99.90
9006;DHT22;62284;50.702;7.140;2022-12-10T07:49:35;1.50;99.90
9006;DHT22;62284;50.702;7.140;2022-12-10T07:52:02;1.60;99.90
9006;DHT22;62284;50.702;7.140;2022-12-10T07:54:29;1.60;99.90
9006;DHT22;62284;50.702;7.140;2022-12-10T07:56:56;1.70;99.90
9006;DHT22;62284;50.702;7.140;2022-12-10T07:59:22;1.60;99.90
9006;DHT22;62284;50.702;7.140;2022-12-10T08:01:51;1.60;99.90
9006;DHT22;62284;50.702;7.140;2022-12-10T08:04:18;1.60;99.90
9006;DHT22;62284;50.702;7.140;2022-12-10T08:06:45;1.50;99.90
9006;DHT22;62284;50.702;7.140;2022-12-10T08:09:13;1.60;99.90
9006;DHT22;62284;50.702;7.140;2022-12-10T08:11:40;1.60;99.90
9006;DHT22;62284;50.702;7.140;2022-12-10T08:14:06;1.70;99.90
9006;DHT22;62284;50.702;7.140;2022-12-10T08:16:33;1.80;99.90
9006;DHT22;62284;50.702;7.140;2022-12-10T08:19:02;1.80;99.90
9006;DHT22;62284;50.702;7.140;2022-12-10T08:21:30;1.80;99.90
9006;DHT22;62284;50.702;7.140;2022-12-10T08:23:57;1.80;99.90
9006;DHT22;62284;50.702;7.140;2022-12-10T08:26:27;1.80;99.90
9006;DHT22;62284;50.702;7.140;2022-12-10T08:28:54;1.80;99.90
9006;DHT22;62284;50.702;7.140;2022-12-10T08:31:23;1.90;99.90
9006;DHT22;62284;50.702;7.140;2022-12-10T08:33:50;1.90;99.90
9006;DHT22;62284;50.702;7.140;2022-12-10T08:36:19;1.90;99.90
9006;DHT22;62284;50.702;7.140;2022-12-10T08:38:46;2.00;99.90
9006;DHT22;62284;50.702;7.140;2022-12-10T08:41:15;1.90;99.90
9006;DHT22;62284;50.702;7.140;2022-12-10T08:43:43;1.80;99.90
9006;DHT22;62284;50.702;7.140;2022-12-10T08:46:11;1.90;99.90
9006;DHT22;62284;50.702;7.140;2022-12-10T08:48:38;2.10;99.90
9006;DHT22;62284;50.702;7.140;2022-12-10T08:51:06;2.20;99.90
9006;DHT22;62284;50.702;7.140;2022-12-10T08:53:35;2.20;99.90
9006;DHT22;62284;50.702;7.140;2022-12-10T08:56:02;2.40;99.90
9006;DHT22;62284;50.702;7.140;2022-12-10T08:58:29;2.30;99.90
9006;DHT22;62284;50.702;7.140;2022-12-10T09:00:56;2.40;99.90
9006;DHT22;62284;50.702;7.140;2022-12-10T09:03:24;2.30;99.90
9006;DHT22;62284;50.702;7.140;2022-12-10T09:05:51;2.30;99.90
9006;DHT22;62284;50.702;7.140;2022-12-10T09:08:18;2.30;99.90
9006;DHT22;62284;50.702;7.140;2022-12-10T09:10:46;2.30;99.90
9006;DHT22;62284;50.702;7.140;2022-12-10T09:13:13;2.50;99.90
9006;DHT22;62284;50.702;7.140;2022-12-10T09:15:40;2.50;99.90
9006;DHT22;62284;50.702;7.140;2022-12-10T09:18:06;2.50;99.90
9006;DHT22;62284;50.702;7.140;2022-12-10T09:20:33;2.50;99.90
9006;DHT22;62284;50.702;7.140;2022-12-10T09:23:00;2.60;99.90
9006;DHT22;62284;50.702;7.140;2022-12-10T09:25:27;2.60;99.90
9006;DHT22;62284;50.702;7.140;2022-12-10T09:27:55;2.60;99.90
9006;DHT22;62284;50.702;7.140;2022-12-10T09:30:22;2.60;99.90
9006;DHT22;62284;50.702;7.140;2022-12-10T09:32:49;2.50;99.90
9006;DHT22;62284;50.702;7.140;2022-12-10T09:35:16;2.60;99.90
9006;DHT22;62284;50.702;7.140;2022-12-10T09:37:43;2.60;99.90
9006;DHT22;62284;50.702;7.140;2022-12-10T09:40:15;2.60;99.90
9006;DHT22;62284;50.702;7.140;2022-12-10T09:42:49;2.60;99.90
9006;DHT22;62284;50.702;7.140;2022-12-10T09:45:24;2.50;99.90
9006;DHT22;62284;50.702;7.140;2022-12-10T09:48:00;2.40;99.90
9006;DHT22;62284;50.702;7.140;2022-12-10T09:50:32;2.50;99.90
9006;DHT22;62284;50.702;7.140;2022-12-10T09:53:02;2.50;99.90
9006;DHT22;62284;50.702;7.140;2022-12-10T09:55:34;2.50;99.90
9006;DHT22;62284;50.702;7.140;2022-12-10T09:58:02;2.50;99.90
9006;DHT22;62284;50.702;7.140;2022-12-10T10:00:35;2.60;99.90
9006;DHT22;62284;50.702;7.140;2022-12-10T10:03:03;2.50;99.90
9006;DHT22;62284;50.702;7.140;2022-12-10T10:05:35;2.50;99.90
9006;DHT22;62284;50.702;7.140;2022-12-10T10:08:04;2.60;99.90
9006;DHT22;62284;50.702;7.140;2022-12-10T10:10:34;2.70;99.90
9006;DHT22;62284;50.702;7.140;2022-12-10T10:13:11;2.80;99.90
9006;DHT22;62284;50.702;7.140;2022-12-10T10:15:43;2.80;99.50
9006;DHT22;62284;50.702;7.140;2022-12-10T10:18:16;2.80;99.90
9006;DHT22;62284;50.702;7.140;2022-12-10T10:20:44;2.80;99.70
9006;DHT22;62284;50.702;7.140;2022-12-10T10:23:14;2.80;99.80
9006;DHT22;62284;50.702;7.140;2022-12-10T10:25:42;2.90;99.90
9006;DHT22;62284;50.702;7.140;2022-12-10T10:28:11;2.90;99.60
9006;DHT22;62284;50.702;7.140;2022-12-10T10:30:42;2.90;99.70
9006;DHT22;62284;50.702;7.140;2022-12-10T10:33:11;3.00;99.60
9006;DHT22;62284;50.702;7.140;2022-12-10T10:35:44;3.00;99.00
9006;DHT22;62284;50.702;7.140;2022-12-10T10:38:17;3.00;98.90
9006;DHT22;62284;50.702;7.140;2022-12-10T10:40:49;3.00;99.00
9006;DHT22;62284;50.702;7.140;2022-12-10T10:43:20;3.00;98.70
9006;DHT22;62284;50.702;7.140;2022-12-10T10:45:52;3.10;98.80
9006;DHT22;62284;50.702;7.140;2022-12-10T10:48:22;3.00;98.90
9006;DHT22;62284;50.702;7.140;2022-12-10T10:50:51;2.90;99.00
9006;DHT22;62284;50.702;7.140;2022-12-10T10:53:23;3.00;99.10
9006;DHT22;62284;50.702;7.140;2022-12-10T10:55:50;3.00;99.10
9006;DHT22;62284;50.702;7.140;2022-12-10T10:58:19;2.90;98.80
9006;DHT22;62284;50.702;7.140;2022-12-10T11:00:59;2.80;98.50
9006;DHT22;62284;50.702;7.140;2022-12-10T11:03:28;2.70;98.20
9006;DHT22;62284;50.702;7.140;2022-12-10T11:05:57;2.60;98.70
9006;DHT22;62284;50.702;7.140;2022-12-10T11:08:26;2.70;98.70
9006;DHT22;62284;50.702;7.140;2022-12-10T11:10:58;2.70;98.30
9006;DHT22;62284;50.702;7.140;2022-12-10T11:13:29;2.70;98.10
9006;DHT22;62284;50.702;7.140;2022-12-10T11:16:01;2.70;98.20
9006;DHT22;62284;50.702;7.140;2022-12-10T11:18:34;2.80;98.50
9006;DHT22;62284;50.702;7.140;2022-12-10T11:21:04;2.80;98.30
9006;DHT22;62284;50.702;7.140;2022-12-10T11:23:36;2.70;97.90
9006;DHT22;62284;50.702;7.140;2022-12-10T11:26:16;2.70;98.10
9006;DHT22;62284;50.702;7.140;2022-12-10T11:28:56;2.70;98.30
9006;DHT22;62284;50.702;7.140;2022-12-10T11:31:37;2.70;97.90
9006;DHT22;62284;50.702;7.140;2022-12-10T11:34:12;2.80;97.80
9006;DHT22;62284;50.702;7.140;2022-12-10T11:36:48;2.70;98.00
9006;DHT22;62284;50.702;7.140;2022-12-10T11:39:30;2.80;98.30
9006;DHT22;62284;50.702;7.140;2022-12-10T11:42:04;2.80;97.70
9006;DHT22;62284;50.702;7.140;2022-12-10T11:44:39;2.80;97.80
9006;DHT22;62284;50.702;7.140;2022-12-10T11:47:31;2.80;97.70
9006;DHT22;62284;50.702;7.140;2022-12-10T11:50:12;2.90;97.40
9006;DHT22;62284;50.702;7.140;2022-12-10T11:52:52;2.80;97.00
9006;DHT22;62284;50.702;7.140;2022-12-10T11:55:29;2.80;96.70
9006;DHT22;62284;50.702;7.140;2022-12-10T11:58:11;2.70;96.40
9006;DHT22;62284;50.702;7.140;2022-12-10T12:00:49;2.70;96.60
9006;DHT22;62284;50.702;7.140;2022-12-10T12:03:32;2.70;96.80
9006;DHT22;62284;50.702;7.140;2022-12-10T12:09:01;2.70;96.80
9006;DHT22;62284;50.702;7.140;2022-12-10T12:11:52;2.80;97.00
9006;DHT22;62284;50.702;7.140;2022-12-10T12:14:25;2.90;96.60
9006;DHT22;62284;50.702;7.140;2022-12-10T12:17:00;2.90;96.60
9006;DHT22;62284;50.702;7.140;2022-12-10T12:19:33;2.90;96.20
9006;DHT22;62284;50.702;7.140;2022-12-10T12:22:11;2.90;96.40
9006;DHT22;62284;50.702;7.140;2022-12-10T12:24:40;2.90;96.50
9006;DHT22;62284;50.702;7.140;2022-12-10T12:27:15;2.80;96.10
9006;DHT22;62284;50.702;7.140;2022-12-10T12:29:49;2.80;96.10
9006;DHT22;62284;50.702;7.140;2022-12-10T12:32:20;2.70;96.00
9006;DHT22;62284;50.702;7.140;2022-12-10T12:34:52;2.70;96.20
9006;DHT22;62284;50.702;7.140;2022-12-10T12:37:24;2.80;96.30
9006;DHT22;62284;50.702;7.140;2022-12-10T12:40:00;2.80;96.50
9006;DHT22;62284;50.702;7.140;2022-12-10T12:42:31;2.80;96.10
9006;DHT22;62284;50.702;7.140;2022-12-10T12:45:04;2.80;96.40
9006;DHT22;62284;50.702;7.140;2022-12-10T12:47:41;2.90;96.30
9006;DHT22;62284;50.702;7.140;2022-12-10T12:50:22;3.00;96.70
9006;DHT22;62284;50.702;7.140;2022-12-10T12:52:53;3.10;96.20
9006;DHT22;62284;50.702;7.140;2022-12-10T12:55:26;3.10;95.90
9006;DHT22;62284;50.702;7.140;2022-12-10T12:57:58;3.20;96.10
9006;DHT22;62284;50.702;7.140;2022-12-10T13:00:29;3.20;95.80
9006;DHT22;62284;50.702;7.140;2022-12-10T13:03:08;3.20;96.00
9006;DHT22;62284;50.702;7.140;2022-12-10T13:05:45;3.40;95.80
9006;DHT22;62284;50.702;7.140;2022-12-10T13:08:23;3.50;96.10
9006;DHT22;62284;50.702;7.140;2022-12-10T13:10:53;3.50;95.70
9006;DHT22;62284;50.702;7.140;2022-12-10T13:13:27;3.50;95.00
9006;DHT22;62284;50.702;7.140;2022-12-10T13:15:55;3.50;95.50
9006;DHT22;62284;50.702;7.140;2022-12-10T13:18:34;3.50;95.50
9006;DHT22;62284;50.702;7.140;2022-12-10T13:21:27;3.80;95.50
9006;DHT22;62284;50.702;7.140;2022-12-10T13:24:07;3.90;94.90
9006;DHT22;62284;50.702;7.140;2022-12-10T13:26:34;3.80;95.20
9006;DHT22;62284;50.702;7.140;2022-12-10T13:29:19;3.80;95.50
9006;DHT22;62284;50.702;7.140;2022-12-10T13:31:56;4.00;95.20
9006;DHT22;62284;50.702;7.140;2022-12-10T13:34:31;4.00;95.10
9006;DHT22;62284;50.702;7.140;2022-12-10T13:37:28;4.10;95.50
9006;DHT22;62284;50.702;7.140;2022-12-10T13:40:14;4.20;93.90
9006;DHT22;62284;50.702;7.140;2022-12-10T13:42:44;4.10;94.10
9006;DHT22;62284;50.702;7.140;2022-12-10T13:45:35;4.00;94.30
9006;DHT22;62284;50.702;7.140;2022-12-10T13:48:30;4.10;94.40
9006;DHT22;62284;50.702;7.140;2022-12-10T13:51:14;4.20;94.30
9006;DHT22;62284;50.702;7.140;2022-12-10T13:54:04;4.10;94.50
9006;DHT22;62284;50.702;7.140;2022-12-10T13:56:40;4.20;94.30
9006;DHT22;62284;50.702;7.140;2022-12-10T13:59:25;4.20;94.50
9006;DHT22;62284;50.702;7.140;2022-12-10T14:02:02;4.20;94.00
9006;DHT22;62284;50.702;7.140;2022-12-10T14:04:50;4.00;94.30
9006;DHT22;62284;50.702;7.140;2022-12-10T14:07:20;4.10;94.20
9006;DHT22;62284;50.702;7.140;2022-12-10T14:09:52;3.90;94.40
9006;DHT22;62284;50.702;7.140;2022-12-10T14:12:25;3.80;94.80
9006;DHT22;62284;50.702;7.140;2022-12-10T14:14:56;3.70;94.90
9006;DHT22;62284;50.702;7.140;2022-12-10T14:17:31;3.60;95.00
9006;DHT22;62284;50.702;7.140;2022-12-10T14:20:00;3.50;95.40
9006;DHT22;62284;50.702;7.140;2022-12-10T14:22:33;3.40;95.50
9006;DHT22;62284;50.702;7.140;2022-12-10T14:25:04;3.30;95.30
9006;DHT22;62284;50.702;7.140;2022-12-10T14:27:32;3.20;95.70
9006;DHT22;62284;50.702;7.140;2022-12-10T14:30:01;3.10;96.30
9006;DHT22;62284;50.702;7.140;2022-12-10T14:32:31;3.20;96.40
9006;DHT22;62284;50.702;7.140;2022-12-10T14:34:59;3.20;96.50
9006;DHT22;62284;50.702;7.140;2022-12-10T14:37:28;3.10;96.00
9006;DHT22;62284;50.702;7.140;2022-12-10T14:39:56;3.10;96.90
9006;DHT22;62284;50.702;7.140;2022-12-10T14:42:25;3.20;96.30
9006;DHT22;62284;50.702;7.140;2022-12-10T14:44:57;3.20;96.10
9006;DHT22;62284;50.702;7.140;2022-12-10T14:47:25;3.20;96.40
9006;DHT22;62284;50.702;7.140;2022-12-10T14:49:54;3.20;96.60
9006;DHT22;62284;50.702;7.140;2022-12-10T14:52:22;3.20;96.20
9006;DHT22;62284;50.702;7.140;2022-12-10T14:54:50;3.20;96.40
9006;DHT22;62284;50.702;7.140;2022-12-10T14:57:22;3.10;96.50
9006;DHT22;62284;50.702;7.140;2022-12-10T14:59:59;3.20;96.80
9006;DHT22;62284;50.702;7.140;2022-12-10T15:02:29;3.10;96.90
9006;DHT22;62284;50.702;7.140;2022-12-10T15:04:57;3.10;97.10
9006;DHT22;62284;50.702;7.140;2022-12-10T15:07:26;3.00;97.00
9006;DHT22;62284;50.702;7.140;2022-12-10T15:10:03;3.00;96.70
9006;DHT22;62284;50.702;7.140;2022-12-10T15:12:36;2.90;97.30
9006;DHT22;62284;50.702;7.140;2022-12-10T15:15:12;2.90;97.30
9006;DHT22;62284;50.702;7.140;2022-12-10T15:17:42;2.80;97.50
9006;DHT22;62284;50.702;7.140;2022-12-10T15:20:18;2.80;97.60
9006;DHT22;62284;50.702;7.140;2022-12-10T15:22:45;2.70;97.40
9006;DHT22;62284;50.702;7.140;2022-12-10T15:25:20;2.70;97.20
9006;DHT22;62284;50.702;7.140;2022-12-10T15:28:00;2.80;97.10
9006;DHT22;62284;50.702;7.140;2022-12-10T15:30:46;2.80;97.30
9006;DHT22;62284;50.702;7.140;2022-12-10T15:33:25;2.70;97.20
9006;DHT22;62284;50.702;7.140;2022-12-10T15:35:54;2.70;97.70
9006;DHT22;62284;50.702;7.140;2022-12-10T15:38:24;2.60;97.80
9006;DHT22;62284;50.702;7.140;2022-12-10T15:40:57;2.50;97.90
9006;DHT22;62284;50.702;7.140;2022-12-10T15:43:26;2.40;97.90
9006;DHT22;62284;50.702;7.140;2022-12-10T15:45:56;2.40;98.10
9006;DHT22;62284;50.702;7.140;2022-12-10T15:48:25;2.40;98.00
9006;DHT22;62284;50.702;7.140;2022-12-10T15:50:53;2.30;97.90
9006;DHT22;62284;50.702;7.140;2022-12-10T15:53:25;2.30;98.10
9006;DHT22;62284;50.702;7.140;2022-12-10T15:55:53;2.40;98.20
9006;DHT22;62284;50.702;7.140;2022-12-10T15:58:20;2.40;98.40
9006;DHT22;62284;50.702;7.140;2022-12-10T16:00:47;2.30;98.40
9006;DHT22;62284;50.702;7.140;2022-12-10T16:03:16;2.30;98.40
9006;DHT22;62284;50.702;7.140;2022-12-10T16:05:44;2.40;98.30
9006;DHT22;62284;50.702;7.140;2022-12-10T16:08:17;2.40;98.10
9006;DHT22;62284;50.702;7.140;2022-12-10T16:10:45;2.50;98.30
9006;DHT22;62284;50.702;7.140;2022-12-10T16:13:16;2.50;98.00
9006;DHT22;62284;50.702;7.140;2022-12-10T16:15:46;2.50;98.10
9006;DHT22;62284;50.702;7.140;2022-12-10T16:18:15;2.60;98.10
9006;DHT22;62284;50.702;7.140;2022-12-10T16:20:42;2.50;97.90
9006;DHT22;62284;50.702;7.140;2022-12-10T16:23:10;2.40;98.20
9006;DHT22;62284;50.702;7.140;2022-12-10T16:25:38;2.20;98.10
9006;DHT22;62284;50.702;7.140;2022-12-10T16:28:11;2.20;98.40